sensor_id;sensor_type;location;lat;lon;timestamp;temperature;humidity
8105;DHT22;4095;48.942;9.104;2023-05-07T00:01:02;15.90;99.90
8105;DHT22;4095;48.942;9.104;2023-05-07T00:03:28;15.90;99.90
8105;DHT22;4095;48.942;9.104;2023-05-07T00:05:54;15.80;99.90
8105;DHT22;4095;48.942;9.104;2023-05-07T00:08:19;15.80;99.90
8105;DHT22;4095;48.942;9.104;2023-05-07T00:10:46;15.90;99.90
8105;DHT22;4095;48.942;9.104;2023-05-07T00:13:12;15.90;99.90
8105;DHT22;4095;48.942;9.104;2023-05-07T00:15:37;15.90;99.90
8105;DHT22;4095;48.942;9.104;2023-05-07T00:18:03;16.00;99.90
8105;DHT22;4095;48.942;9.104;2023-05-07T00:20:29;16.00;99.90
8105;DHT22;4095;48.942;9.104;2023-05-07T00:22:54;16.00;99.90
8105;DHT22;4095;48.942;9.104;2023-05-07T00:25:20;16.00;99.90
8105;DHT22;4095;48.942;9.104;2023-05-07T00:27:45;16.00;99.90
8105;DHT22;4095;48.942;9.104;2023-05-07T00:30:11;16.00;99.90
8105;DHT22;4095;48.942;9.104;2023-05-07T00:32:37;16.00;99.90
8105;DHT22;4095;48.942;9.104;2023-05-07T00:35:04;16.00;99.90
8105;DHT22;4095;48.942;9.104;2023-05-07T00:37:30;16.00;99.90
8105;DHT22;4095;48.942;9.104;2023-05-07T00:39:56;16.00;99.90
8105;DHT22;4095;48.942;9.104;2023-05-07T00:42:22;16.00;99.90
8105;DHT22;4095;48.942;9.104;2023-05-07T00:44:48;16.00;99.90
8105;DHT22;4095;48.942;9.104;2023-05-07T00:47:14;15.90;99.90
8105;DHT22;4095;48.942;9.104;2023-05-07T00:49:44;15.90;99.90
8105;DHT22;4095;48.942;9.104;2023-05-07T00:52:16;15.90;99.90
8105;DHT22;4095;48.942;9.104;2023-05-07T00:54:42;15.90;99.90
8105;DHT22;4095;48.942;9.104;2023-05-07T00:57:09;15.80;99.90
8105;DHT22;4095;48.942;9.104;2023-05-07T00:59:37;15.80;99.90
8105;DHT22;4095;48.942;9.104;2023-05-07T01:02:03;15.70;99.90
8105;DHT22;4095;48.942;9.104;2023-05-07T01:04:29;15.70;99.90
8105;DHT22;4095;48.942;9.104;2023-05-07T01:06:55;15.70;99.90
8105;DHT22;4095;48.942;9.104;2023-05-07T01:09:25;15.60;99.90
8105;DHT22;4095;48.942;9.104;2023-05-07T01:11:52;15.60;99.90
8105;DHT22;4095;48.942;9.104;2023-05-07T01:14:18;15.50;99.90
8105;DHT22;4095;48.942;9.104;2023-05-07T01:16:46;15.50;99.90
8105;DHT22;4095;48.942;9.104;2023-05-07T01:19:12;15.40;99.90
8105;DHT22;4095;48.942;9.104;2023-05-07T01:21:45;15.40;99.90
8105;DHT22;4095;48.942;9.104;2023-05-07T01:24:11;15.40;99.90
8105;DHT22;4095;48.942;9.104;2023-05-07T01:26:37;15.40;99.90
8105;DHT22;4095;48.942;9.104;2023-05-07T01:29:03;15.40;99.90
8105;DHT22;4095;48.942;9.104;2023-05-07T01:31:29;15.40;99.90
8105;DHT22;4095;48.942;9.104;2023-05-07T01:33:56;15.40;99.90
8105;DHT22;4095;48.942;9.104;2023-05-07T01:36:22;15.40;99.90
8105;DHT22;4095;48.942;9.104;2023-05-07T01:38:51;15.40;99.90
8105;DHT22;4095;48.942;9.104;2023-05-07T01:41:18;15.30;99.90
8105;DHT22;4095;48.942;9.104;2023-05-07T01:43:46;15.30;99.90
8105;DHT22;4095;48.942;9.104;2023-05-07T01:46:13;15.30;99.90
8105;DHT22;4095;48.942;9.104;2023-05-07T01:48:40;15.30;99.90
8105;DHT22;4095;48.942;9.104;2023-05-07T01:51:06;15.30;99.90
8105;DHT22;4095;48.942;9.104;2023-05-07T01:53:37;15.30;99.90
8105;DHT22;4095;48.942;9.104;2023-05-07T01:56:03;15.30;99.90
8105;DHT22;4095;48.942;9.104;2023-05-07T01:58:28;15.30;99.90
8105;DHT22;4095;48.942;9.104;2023-05-07T02:00:54;15.30;99.90
8105;DHT22;4095;48.942;9.104;2023-05-07T02:03:19;15.30;99.90
8105;DHT22;4095;48.942;9.104;2023-05-07T02:05:45;15.30;99.90
8105;DHT22;4095;48.942;9.104;2023-05-07T02:08:11;15.30;99.90
8105;DHT22;4095;48.942;9.104;2023-05-07T02:10:36;15.30;99.90
8105;DHT22;4095;48.942;9.104;2023-05-07T02:13:02;15.40;99.90
8105;DHT22;4095;48.942;9.104;2023-05-07T02:15:27;15.40;99.90
8105;DHT22;4095;48.942;9.104;2023-05-07T02:18:04;15.30;99.90
8105;DHT22;4095;48.942;9.104;2023-05-07T02:20:31;15.30;99.90
8105;DHT22;4095;48.942;9.104;2023-05-07T02:22:57;15.30;99.90
8105;DHT22;4095;48.942;9.104;2023-05-07T02:25:22;15.30;99.90
8105;DHT22;4095;48.942;9.104;2023-05-07T02:27:48;15.30;99.90
8105;DHT22;4095;48.942;9.104;2023-05-07T02:30:14;15.20;99.90
8105;DHT22;4095;48.942;9.104;2023-05-07T02:32:39;15.30;99.90
8105;DHT22;4095;48.942;9.104;2023-05-07T02:35:05;15.20;99.90
8105;DHT22;4095;48.942;9.104;2023-05-07T02:37:31;15.20;99.90
8105;DHT22;4095;48.942;9.104;2023-05-07T02:39:56;15.20;99.90
8105;DHT22;4095;48.942;9.104;2023-05-07T02:42:22;15.20;99.90
8105;DHT22;4095;48.942;9.104;2023-05-07T02:44:48;15.20;99.90
8105;DHT22;4095;48.942;9.104;2023-05-07T02:47:14;15.20;99.90
8105;DHT22;4095;48.942;9.104;2023-05-07T02:49:40;15.10;99.90
8105;DHT22;4095;48.942;9.104;2023-05-07T02:52:06;15.10;99.90
8105;DHT22;4095;48.942;9.104;2023-05-07T02:54:32;15.10;99.90
8105;DHT22;4095;48.942;9.104;2023-05-07T02:56:58;15.00;99.90
8105;DHT22;4095;48.942;9.104;2023-05-07T02:59:24;15.00;99.90
8105;DHT22;4095;48.942;9.104;2023-05-07T03:01:51;15.00;99.90
8105;DHT22;4095;48.942;9.104;2023-05-07T03:04:17;14.90;99.90
8105;DHT22;4095;48.942;9.104;2023-05-07T03:06:42;14.90;99.90
8105;DHT22;4095;48.942;9.104;2023-05-07T03:09:08;14.80;99.90
8105;DHT22;4095;48.942;9.104;2023-05-07T03:11:34;14.80;99.90
8105;DHT22;4095;48.942;9.104;2023-05-07T03:14:01;14.70;99.90
8105;DHT22;4095;48.942;9.104;2023-05-07T03:16:26;14.70;99.90
8105;DHT22;4095;48.942;9.104;2023-05-07T03:18:52;14.70;99.90
8105;DHT22;4095;48.942;9.104;2023-05-07T03:21:18;14.70;99.90
8105;DHT22;4095;48.942;9.104;2023-05-07T03:23:43;14.60;99.90
8105;DHT22;4095;48.942;9.104;2023-05-07T03:26:09;14.60;99.90
8105;DHT22;4095;48.942;9.104;2023-05-07T03:28:34;14.50;99.90
8105;DHT22;4095;48.942;9.104;2023-05-07T03:31:00;14.50;99.90
8105;DHT22;4095;48.942;9.104;2023-05-07T03:33:26;14.50;99.90
8105;DHT22;4095;48.942;9.104;2023-05-07T03:35:52;14.50;99.90
8105;DHT22;4095;48.942;9.104;2023-05-07T03:38:18;14.50;99.90
8105;DHT22;4095;48.942;9.104;2023-05-07T03:40:44;14.40;99.90
8105;DHT22;4095;48.942;9.104;2023-05-07T03:43:09;14.40;99.90
8105;DHT22;4095;48.942;9.104;2023-05-07T03:45:35;14.40;99.90
8105;DHT22;4095;48.942;9.104;2023-05-07T03:48:01;14.40;99.90
8105;DHT22;4095;48.942;9.104;2023-05-07T03:50:26;14.40;99.90
8105;DHT22;4095;48.942;9.104;2023-05-07T03:52:52;14.30;99.90
8105;DHT22;4095;48.942;9.104;2023-05-07T03:55:17;14.30;99.90
8105;DHT22;4095;48.942;9.104;2023-05-07T03:57:43;14.30;99.90
8105;DHT22;4095;48.942;9.104;2023-05-07T04:00:09;14.30;99.90
8105;DHT22;4095;48.942;9.104;2023-05-07T04:02:35;14.30;99.90
8105;DHT22;4095;48.942;9.104;2023-05-07T04:05:00;14.30;99.90
8105;DHT22;4095;48.942;9.104;2023-05-07T04:07:26;14.30;99.90
8105;DHT22;4095;48.942;9.104;2023-05-07T04:09:52;14.20;99.90
8105;DHT22;4095;48.942;9.104;2023-05-07T04:12:17;14.20;99.90
8105;DHT22;4095;48.942;9.104;2023-05-07T04:14:43;14.20;99.90
8105;DHT22;4095;48.942;9.104;2023-05-07T04:17:08;14.30;99.90
8105;DHT22;4095;48.942;9.104;2023-05-07T04:19:36;14.20;99.90
8105;DHT22;4095;48.942;9.104;2023-05-07T04:22:01;14.30;99.90
8105;DHT22;4095;48.942;9.104;2023-05-07T04:24:27;14.30;99.90
8105;DHT22;4095;48.942;9.104;2023-05-07T04:26:53;14.30;99.90
8105;DHT22;4095;48.942;9.104;2023-05-07T04:29:18;14.30;99.90
8105;DHT22;4095;48.942;9.104;2023-05-07T04:31:44;14.30;99.90
8105;DHT22;4095;48.942;9.104;2023-05-07T04:34:10;14.30;99.90
8105;DHT22;4095;48.942;9.104;2023-05-07T04:36:39;14.30;99.90
8105;DHT22;4095;48.942;9.104;2023-05-07T04:39:05;14.40;99.90
8105;DHT22;4095;48.942;9.104;2023-05-07T04:41:32;14.40;99.90
8105;DHT22;4095;48.942;9.104;2023-05-07T04:43:57;14.40;99.90
8105;DHT22;4095;48.942;9.104;2023-05-07T04:46:24;14.40;99.90
8105;DHT22;4095;48.942;9.104;2023-05-07T04:48:50;14.40;99.90
8105;DHT22;4095;48.942;9.104;2023-05-07T04:51:15;14.50;99.90
8105;DHT22;4095;48.942;9.104;2023-05-07T04:53:41;14.50;99.90
8105;DHT22;4095;48.942;9.104;2023-05-07T04:56:08;14.60;99.90
8105;DHT22;4095;48.942;9.104;2023-05-07T04:58:33;14.60;99.90
8105;DHT22;4095;48.942;9.104;2023-05-07T05:00:59;14.60;99.90
8105;DHT22;4095;48.942;9.104;2023-05-07T05:03:25;14.60;99.90
8105;DHT22;4095;48.942;9.104;2023-05-07T05:05:51;14.70;99.90
8105;DHT22;4095;48.942;9.104;2023-05-07T05:08:18;14.70;99.90
8105;DHT22;4095;48.942;9.104;2023-05-07T05:10:43;14.70;99.90
8105;DHT22;4095;48.942;9.104;2023-05-07T05:13:09;14.70;99.90
8105;DHT22;4095;48.942;9.104;2023-05-07T05:15:38;14.80;99.90
8105;DHT22;4095;48.942;9.104;2023-05-07T05:18:03;14.80;99.90
8105;DHT22;4095;48.942;9.104;2023-05-07T05:20:29;14.80;99.90
8105;DHT22;4095;48.942;9.104;2023-05-07T05:22:55;14.90;99.90
8105;DHT22;4095;48.942;9.104;2023-05-07T05:25:20;14.90;99.90
8105;DHT22;4095;48.942;9.104;2023-05-07T05:27:46;15.00;99.90
8105;DHT22;4095;48.942;9.104;2023-05-07T05:30:12;15.00;99.90
8105;DHT22;4095;48.942;9.104;2023-05-07T05:32:38;15.10;99.90
8105;DHT22;4095;48.942;9.104;2023-05-07T05:35:04;15.10;99.90
8105;DHT22;4095;48.942;9.104;2023-05-07T05:37:29;15.20;99.90
8105;DHT22;4095;48.942;9.104;2023-05-07T05:39:56;15.30;99.90
8105;DHT22;4095;48.942;9.104;2023-05-07T05:42:22;15.40;99.90
8105;DHT22;4095;48.942;9.104;2023-05-07T05:44:48;15.50;99.90
8105;DHT22;4095;48.942;9.104;2023-05-07T05:47:14;15.60;99.90
8105;DHT22;4095;48.942;9.104;2023-05-07T05:49:39;15.70;99.90
8105;DHT22;4095;48.942;9.104;2023-05-07T05:52:05;15.80;99.90
8105;DHT22;4095;48.942;9.104;2023-05-07T05:54:30;15.90;99.90
8105;DHT22;4095;48.942;9.104;2023-05-07T05:56:56;16.00;99.90
8105;DHT22;4095;48.942;9.104;2023-05-07T05:59:22;16.00;99.90
8105;DHT22;4095;48.942;9.104;2023-05-07T06:01:48;16.10;99.90
8105;DHT22;4095;48.942;9.104;2023-05-07T06:04:13;16.20;99.90
8105;DHT22;4095;48.942;9.104;2023-05-07T06:06:39;16.30;99.90
8105;DHT22;4095;48.942;9.104;2023-05-07T06:09:04;16.30;99.90
8105;DHT22;4095;48.942;9.104;2023-05-07T06:11:31;16.40;99.90
8105;DHT22;4095;48.942;9.104;2023-05-07T06:13:57;16.50;99.90
8105;DHT22;4095;48.942;9.104;2023-05-07T06:16:24;16.50;99.90
8105;DHT22;4095;48.942;9.104;2023-05-07T06:18:49;16.50;99.90
8105;DHT22;4095;48.942;9.104;2023-05-07T06:21:15;16.70;99.90
8105;DHT22;4095;48.942;9.104;2023-05-07T06:23:41;16.80;99.90
8105;DHT22;4095;48.942;9.104;2023-05-07T06:26:07;16.80;99.90
8105;DHT22;4095;48.942;9.104;2023-05-07T06:28:32;16.90;99.90
8105;DHT22;4095;48.942;9.104;2023-05-07T06:31:14;16.90;99.90
8105;DHT22;4095;48.942;9.104;2023-05-07T06:33:40;17.00;99.90
8105;DHT22;4095;48.942;9.104;2023-05-07T06:36:06;17.00;99.90
8105;DHT22;4095;48.942;9.104;2023-05-07T06:38:31;17.00;99.90
8105;DHT22;4095;48.942;9.104;2023-05-07T06:40:57;17.00;99.90
8105;DHT22;4095;48.942;9.104;2023-05-07T06:43:23;17.10;99.90
8105;DHT22;4095;48.942;9.104;2023-05-07T06:45:48;17.30;99.90
8105;DHT22;4095;48.942;9.104;2023-05-07T06:48:14;17.30;99.90
8105;DHT22;4095;48.942;9.104;2023-05-07T06:50:41;17.40;99.90
8105;DHT22;4095;48.942;9.104;2023-05-07T06:53:06;17.40;99.90
8105;DHT22;4095;48.942;9.104;2023-05-07T06:55:32;17.50;99.90
8105;DHT22;4095;48.942;9.104;2023-05-07T06:57:58;17.40;99.90
8105;DHT22;4095;48.942;9.104;2023-05-07T07:00:26;17.50;99.90
8105;DHT22;4095;48.942;9.104;2023-05-07T07:02:52;17.60;99.90
8105;DHT22;4095;48.942;9.104;2023-05-07T07:05:18;17.70;99.90
8105;DHT22;4095;48.942;9.104;2023-05-07T07:07:44;17.90;99.90
8105;DHT22;4095;48.942;9.104;2023-05-07T07:10:09;18.10;99.90
8105;DHT22;4095;48.942;9.104;2023-05-07T07:12:35;18.10;99.90
8105;DHT22;4095;48.942;9.104;2023-05-07T07:15:01;18.30;99.90
8105;DHT22;4095;48.942;9.104;2023-05-07T07:17:27;18.40;99.90
8105;DHT22;4095;48.942;9.104;2023-05-07T07:19:53;18.60;99.90
8105;DHT22;4095;48.942;9.104;2023-05-07T07:22:19;18.70;99.90
8105;DHT22;4095;48.942;9.104;2023-05-07T07:24:45;18.70;99.90
8105;DHT22;4095;48.942;9.104;2023-05-07T07:27:10;18.80;99.90
8105;DHT22;4095;48.942;9.104;2023-05-07T07:29:36;18.80;99.90
8105;DHT22;4095;48.942;9.104;2023-05-07T07:32:01;18.80;99.90
8105;DHT22;4095;48.942;9.104;2023-05-07T07:34:27;19.00;99.90
8105;DHT22;4095;48.942;9.104;2023-05-07T07:36:53;19.20;99.90
8105;DHT22;4095;48.942;9.104;2023-05-07T07:39:18;19.50;99.90
8105;DHT22;4095;48.942;9.104;2023-05-07T07:41:44;19.60;99.90
8105;DHT22;4095;48.942;9.104;2023-05-07T07:44:09;19.70;99.90
8105;DHT22;4095;48.942;9.104;2023-05-07T07:46:38;19.80;99.90
8105;DHT22;4095;48.942;9.104;2023-05-07T07:49:03;19.80;99.90
8105;DHT22;4095;48.942;9.104;2023-05-07T07:51:29;19.90;99.90
8105;DHT22;4095;48.942;9.104;2023-05-07T07:53:55;19.90;99.90
8105;DHT22;4095;48.942;9.104;2023-05-07T07:56:23;19.90;99.90
8105;DHT22;4095;48.942;9.104;2023-05-07T07:58:48;19.90;99.90
8105;DHT22;4095;48.942;9.104;2023-05-07T08:01:14;19.90;99.90
8105;DHT22;4095;48.942;9.104;2023-05-07T08:03:40;19.90;99.90
8105;DHT22;4095;48.942;9.104;2023-05-07T08:06:06;19.90;99.90
8105;DHT22;4095;48.942;9.104;2023-05-07T08:08:33;19.90;99.90
8105;DHT22;4095;48.942;9.104;2023-05-07T08:10:58;20.00;99.90
8105;DHT22;4095;48.942;9.104;2023-05-07T08:13:24;20.10;99.90
8105;DHT22;4095;48.942;9.104;2023-05-07T08:15:49;20.10;99.90
8105;DHT22;4095;48.942;9.104;2023-05-07T08:18:15;20.10;99.90
8105;DHT22;4095;48.942;9.104;2023-05-07T08:20:41;20.20;99.90
8105;DHT22;4095;48.942;9.104;2023-05-07T08:23:06;20.40;99.90
8105;DHT22;4095;48.942;9.104;2023-05-07T08:25:36;20.50;99.90
8105;DHT22;4095;48.942;9.104;2023-05-07T08:28:02;20.50;99.90
8105;DHT22;4095;48.942;9.104;2023-05-07T08:30:28;20.60;99.90
8105;DHT22;4095;48.942;9.104;2023-05-07T08:32:54;20.60;99.90
8105;DHT22;4095;48.942;9.104;2023-05-07T08:35:20;20.60;99.90
8105;DHT22;4095;48.942;9.104;2023-05-07T08:37:45;20.70;99.70
8105;DHT22;4095;48.942;9.104;2023-05-07T08:40:11;20.70;99.60
8105;DHT22;4095;48.942;9.104;2023-05-07T08:42:37;20.80;99.90
8105;DHT22;4095;48.942;9.104;2023-05-07T08:45:04;20.90;99.90
8105;DHT22;4095;48.942;9.104;2023-05-07T08:47:38;20.90;98.90
8105;DHT22;4095;48.942;9.104;2023-05-07T08:50:06;21.00;99.00
8105;DHT22;4095;48.942;9.104;2023-05-07T08:52:32;21.00;98.60
8105;DHT22;4095;48.942;9.104;2023-05-07T08:54:59;21.00;98.80
8105;DHT22;4095;48.942;9.104;2023-05-07T08:57:24;21.10;99.80
8105;DHT22;4095;48.942;9.104;2023-05-07T08:59:50;21.20;98.80
8105;DHT22;4095;48.942;9.104;2023-05-07T09:02:15;21.30;98.50
8105;DHT22;4095;48.942;9.104;2023-05-07T09:04:42;21.40;99.00
8105;DHT22;4095;48.942;9.104;2023-05-07T09:07:07;21.40;98.50
8105;DHT22;4095;48.942;9.104;2023-05-07T09:09:33;21.50;99.40
8105;DHT22;4095;48.942;9.104;2023-05-07T09:11:59;21.50;98.50
8105;DHT22;4095;48.942;9.104;2023-05-07T09:14:26;21.70;98.60
8105;DHT22;4095;48.942;9.104;2023-05-07T09:16:54;21.70;98.30
8105;DHT22;4095;48.942;9.104;2023-05-07T09:19:24;21.80;98.70
8105;DHT22;4095;48.942;9.104;2023-05-07T09:21:57;22.00;98.80
8105;DHT22;4095;48.942;9.104;2023-05-07T09:24:22;22.10;97.90
8105;DHT22;4095;48.942;9.104;2023-05-07T09:26:48;22.10;97.90
8105;DHT22;4095;48.942;9.104;2023-05-07T09:29:15;22.20;97.70
8105;DHT22;4095;48.942;9.104;2023-05-07T09:31:42;22.20;98.10
8105;DHT22;4095;48.942;9.104;2023-05-07T09:34:08;22.30;98.00
8105;DHT22;4095;48.942;9.104;2023-05-07T09:36:33;22.50;98.90
8105;DHT22;4095;48.942;9.104;2023-05-07T09:39:00;22.60;99.00
8105;DHT22;4095;48.942;9.104;2023-05-07T09:41:26;22.80;98.90
8105;DHT22;4095;48.942;9.104;2023-05-07T09:43:55;22.90;98.20
8105;DHT22;4095;48.942;9.104;2023-05-07T09:46:26;23.10;99.20
8105;DHT22;4095;48.942;9.104;2023-05-07T09:48:53;23.30;98.80
8105;DHT22;4095;48.942;9.104;2023-05-07T09:51:25;23.40;98.00
8105;DHT22;4095;48.942;9.104;2023-05-07T09:53:53;23.60;98.50
8105;DHT22;4095;48.942;9.104;2023-05-07T09:56:19;23.90;98.90
8105;DHT22;4095;48.942;9.104;2023-05-07T09:58:46;24.10;98.50
8105;DHT22;4095;48.942;9.104;2023-05-07T10:01:12;24.20;98.40
8105;DHT22;4095;48.942;9.104;2023-05-07T10:03:40;24.30;97.40
8105;DHT22;4095;48.942;9.104;2023-05-07T10:06:09;24.50;96.80
8105;DHT22;4095;48.942;9.104;2023-05-07T10:08:36;24.70;97.60
8105;DHT22;4095;48.942;9.104;2023-05-07T10:11:03;24.90;97.00
8105;DHT22;4095;48.942;9.104;2023-05-07T10:13:29;25.10;96.60
8105;DHT22;4095;48.942;9.104;2023-05-07T10:15:55;25.20;96.90
8105;DHT22;4095;48.942;9.104;2023-05-07T10:18:22;25.50;97.00
8105;DHT22;4095;48.942;9.104;2023-05-07T10:20:51;25.70;96.00
8105;DHT22;4095;48.942;9.104;2023-05-07T10:23:21;25.80;95.80
8105;DHT22;4095;48.942;9.104;2023-05-07T10:25:48;26.00;96.00
8105;DHT22;4095;48.942;9.104;2023-05-07T10:28:14;26.20;95.30
8105;DHT22;4095;48.942;9.104;2023-05-07T10:33:42;26.50;93.20
8105;DHT22;4095;48.942;9.104;2023-05-07T10:36:10;26.40;92.40
8105;DHT22;4095;48.942;9.104;2023-05-07T10:38:36;26.40;93.10
8105;DHT22;4095;48.942;9.104;2023-05-07T10:41:01;26.30;93.60
8105;DHT22;4095;48.942;9.104;2023-05-07T10:43:44;26.30;94.10
8105;DHT22;4095;48.942;9.104;2023-05-07T10:46:18;26.40;93.90
8105;DHT22;4095;48.942;9.104;2023-05-07T10:51:29;26.50;92.70
8105;DHT22;4095;48.942;9.104;2023-05-07T10:56:40;26.40;92.90
8105;DHT22;4095;48.942;9.104;2023-05-07T11:01:53;26.60;93.20
8105;DHT22;4095;48.942;9.104;2023-05-07T11:04:19;26.60;94.00
8105;DHT22;4095;48.942;9.104;2023-05-07T11:07:25;26.60;93.20
8105;DHT22;4095;48.942;9.104;2023-05-07T11:15:14;26.30;94.00
8105;DHT22;4095;48.942;9.104;2023-05-07T11:17:56;26.40;93.70
8105;DHT22;4095;48.942;9.104;2023-05-07T11:20:44;26.50;93.50
8105;DHT22;4095;48.942;9.104;2023-05-07T11:26:07;26.40;94.40
8105;DHT22;4095;48.942;9.104;2023-05-07T11:28:51;26.30;93.40
8105;DHT22;4095;48.942;9.104;2023-05-07T11:31:21;26.20;93.40
8105;DHT22;4095;48.942;9.104;2023-05-07T11:33:48;26.10;93.00
8105;DHT22;4095;48.942;9.104;2023-05-07T11:36:14;25.90;93.00
8105;DHT22;4095;48.942;9.104;2023-05-07T11:38:40;25.80;93.80
8105;DHT22;4095;48.942;9.104;2023-05-07T11:41:06;25.60;93.80
8105;DHT22;4095;48.942;9.104;2023-05-07T11:43:33;25.50;93.50
8105;DHT22;4095;48.942;9.104;2023-05-07T11:46:10;25.30;93.10
8105;DHT22;4095;48.942;9.104;2023-05-07T11:48:36;25.20;94.20
8105;DHT22;4095;48.942;9.104;2023-05-07T11:51:06;25.10;95.20
8105;DHT22;4095;48.942;9.104;2023-05-07T11:53:38;25.10;94.40
8105;DHT22;4095;48.942;9.104;2023-05-07T11:56:14;25.00;94.40
8105;DHT22;4095;48.942;9.104;2023-05-07T11:58:41;25.10;94.50
8105;DHT22;4095;48.942;9.104;2023-05-07T12:01:11;25.10;93.40
8105;DHT22;4095;48.942;9.104;2023-05-07T12:03:39;25.10;94.00
8105;DHT22;4095;48.942;9.104;2023-05-07T12:06:08;25.20;94.90
8105;DHT22;4095;48.942;9.104;2023-05-07T12:08:37;25.20;95.30
8105;DHT22;4095;48.942;9.104;2023-05-07T12:11:03;25.20;94.40
8105;DHT22;4095;48.942;9.104;2023-05-07T12:13:32;25.30;93.70
8105;DHT22;4095;48.942;9.104;2023-05-07T12:15:57;25.30;93.00
8105;DHT22;4095;48.942;9.104;2023-05-07T12:18:23;25.30;92.90
8105;DHT22;4095;48.942;9.104;2023-05-07T12:20:50;25.40;92.20
8105;DHT22;4095;48.942;9.104;2023-05-07T12:23:16;25.40;91.60
8105;DHT22;4095;48.942;9.104;2023-05-07T12:25:43;25.40;92.00
8105;DHT22;4095;48.942;9.104;2023-05-07T12:28:14;25.50;92.10
8105;DHT22;4095;48.942;9.104;2023-05-07T12:30:42;25.60;92.70
8105;DHT22;4095;48.942;9.104;2023-05-07T12:33:08;25.70;93.30
8105;DHT22;4095;48.942;9.104;2023-05-07T12:35:40;25.80;91.70
8105;DHT22;4095;48.942;9.104;2023-05-07T12:38:14;25.80;92.30
8105;DHT22;4095;48.942;9.104;2023-05-07T12:43:07;25.80;92.90
8105;DHT22;4095;48.942;9.104;2023-05-07T12:45:37;25.70;92.30
8105;DHT22;4095;48.942;9.104;2023-05-07T12:48:04;25.70;91.20
8105;DHT22;4095;48.942;9.104;2023-05-07T12:50:33;25.60;91.00
8105;DHT22;4095;48.942;9.104;2023-05-07T12:52:59;25.60;91.20
8105;DHT22;4095;48.942;9.104;2023-05-07T12:55:25;25.60;91.30
8105;DHT22;4095;48.942;9.104;2023-05-07T12:57:52;25.50;91.00
8105;DHT22;4095;48.942;9.104;2023-05-07T13:00:31;25.40;90.40
8105;DHT22;4095;48.942;9.104;2023-05-07T13:02:58;25.30;90.60
8105;DHT22;4095;48.942;9.104;2023-05-07T13:05:24;25.20;90.40
8105;DHT22;4095;48.942;9.104;2023-05-07T13:07:53;25.10;91.40
8105;DHT22;4095;48.942;9.104;2023-05-07T13:10:21;25.00;91.20
8105;DHT22;4095;48.942;9.104;2023-05-07T13:12:46;24.90;92.30
8105;DHT22;4095;48.942;9.104;2023-05-07T13:15:12;24.70;93.70
8105;DHT22;4095;48.942;9.104;2023-05-07T13:17:37;24.40;95.20
8105;DHT22;4095;48.942;9.104;2023-05-07T13:20:03;24.10;96.00
8105;DHT22;4095;48.942;9.104;2023-05-07T13:22:29;23.70;96.90
8105;DHT22;4095;48.942;9.104;2023-05-07T13:24:54;23.40;97.30
8105;DHT22;4095;48.942;9.104;2023-05-07T13:27:20;23.10;96.40
8105;DHT22;4095;48.942;9.104;2023-05-07T13:29:46;22.90;96.30
8105;DHT22;4095;48.942;9.104;2023-05-07T13:32:11;22.70;96.10
8105;DHT22;4095;48.942;9.104;2023-05-07T13:34:37;22.60;96.30
8105;DHT22;4095;48.942;9.104;2023-05-07T13:37:02;22.50;96.40
8105;DHT22;4095;48.942;9.104;2023-05-07T13:39:28;22.40;96.50
8105;DHT22;4095;48.942;9.104;2023-05-07T13:41:54;22.30;95.70
8105;DHT22;4095;48.942;9.104;2023-05-07T13:44:20;22.10;95.50
8105;DHT22;4095;48.942;9.104;2023-05-07T13:46:46;22.10;94.90
8105;DHT22;4095;48.942;9.104;2023-05-07T13:49:11;22.00;94.50
8105;DHT22;4095;48.942;9.104;2023-05-07T13:51:38;21.80;94.80
8105;DHT22;4095;48.942;9.104;2023-05-07T13:54:03;21.60;95.60
8105;DHT22;4095;48.942;9.104;2023-05-07T13:56:29;21.50;96.50
8105;DHT22;4095;48.942;9.104;2023-05-07T13:58:57;21.20;96.70
8105;DHT22;4095;48.942;9.104;2023-05-07T14:01:23;21.00;97.40
8105;DHT22;4095;48.942;9.104;2023-05-07T14:03:49;20.90;97.70
8105;DHT22;4095;48.942;9.104;2023-05-07T14:06:14;20.80;97.90
8105;DHT22;4095;48.942;9.104;2023-05-07T14:08:40;20.70;98.20
8105;DHT22;4095;48.942;9.104;2023-05-07T14:11:06;20.60;98.10
8105;DHT22;4095;48.942;9.104;2023-05-07T14:13:31;20.60;98.10
8105;DHT22;4095;48.942;9.104;2023-05-07T14:15:57;20.50;98.30
8105;DHT22;4095;48.942;9.104;2023-05-07T14:18:23;20.60;98.40
8105;DHT22;4095;48.942;9.104;2023-05-07T14:20:49;20.60;98.70
8105;DHT22;4095;48.942;9.104;2023-05-07T14:23:15;20.50;98.50
8105;DHT22;4095;48.942;9.104;2023-05-07T14:25:42;20.60;98.60
8105;DHT22;4095;48.942;9.104;2023-05-07T14:28:09;20.60;99.30
8105;DHT22;4095;48.942;9.104;2023-05-07T14:30:34;20.70;99.80
8105;DHT22;4095;48.942;9.104;2023-05-07T14:33:00;20.70;99.90
8105;DHT22;4095;48.942;9.104;2023-05-07T14:35:25;20.70;99.90
8105;DHT22;4095;48.942;9.104;2023-05-07T14:37:51;20.60;99.90
8105;DHT22;4095;48.942;9.104;2023-05-07T14:40:17;20.60;99.90
8105;DHT22;4095;48.942;9.104;2023-05-07T14:42:42;20.70;99.90
8105;DHT22;4095;48.942;9.104;2023-05-07T14:45:08;20.60;99.90
8105;DHT22;4095;48.942;9.104;2023-05-07T14:47:34;20.60;99.90
8105;DHT22;4095;48.942;9.104;2023-05-07T14:50:00;20.60;99.90
8105;DHT22;4095;48.942;9.104;2023-05-07T14:52:26;20.60;99.90
8105;DHT22;4095;48.942;9.104;2023-05-07T14:54:52;20.60;99.90
8105;DHT22;4095;48.942;9.104;2023-05-07T14:57:17;20.50;99.90
8105;DHT22;4095;48.942;9.104;2023-05-07T14:59:45;20.50;99.90
8105;DHT22;4095;48.942;9.104;2023-05-07T15:02:11;20.50;99.90
8105;DHT22;4095;48.942;9.104;2023-05-07T15:04:37;20.50;99.90
8105;DHT22;4095;48.942;9.104;2023-05-07T15:07:03;20.50;99.90
8105;DHT22;4095;48.942;9.104;2023-05-07T15:09:29;20.40;99.90
8105;DHT22;4095;48.942;9.104;2023-05-07T15:11:55;20.40;99.90
8105;DHT22;4095;48.942;9.104;2023-05-07T15:14:20;20.40;99.90
8105;DHT22;4095;48.942;9.104;2023-05-07T15:16:47;20.30;99.90
8105;DHT22;4095;48.942;9.104;2023-05-07T15:19:13;20.30;99.90
8105;DHT22;4095;48.942;9.104;2023-05-07T15:21:40;20.30;99.90
8105;DHT22;4095;48.942;9.104;2023-05-07T15:24:06;20.30;99.90
8105;DHT22;4095;48.942;9.104;2023-05-07T15:26:32;20.20;99.90
8105;DHT22;4095;48.942;9.104;2023-05-07T15:28:57;20.10;99.90
8105;DHT22;4095;48.942;9.104;2023-05-07T15:31:26;20.10;99.90
8105;DHT22;4095;48.942;9.104;2023-05-07T15:33:51;20.10;99.90
8105;DHT22;4095;48.942;9.104;2023-05-07T15:36:17;20.00;99.90
8105;DHT22;4095;48.942;9.104;2023-05-07T15:38:43;20.00;99.90
8105;DHT22;4095;48.942;9.104;2023-05-07T15:41:09;19.90;99.90
8105;DHT22;4095;48.942;9.104;2023-05-07T15:43:44;20.00;99.90
8105;DHT22;4095;48.942;9.104;2023-05-07T15:46:10;19.90;99.90
8105;DHT22;4095;48.942;9.104;2023-05-07T15:48:36;19.90;99.90
8105;DHT22;4095;48.942;9.104;2023-05-07T15:51:02;19.80;99.90
8105;DHT22;4095;48.942;9.104;2023-05-07T15:53:28;19.80;99.90
8105;DHT22;4095;48.942;9.104;2023-05-07T15:55:53;19.80;99.90
8105;DHT22;4095;48.942;9.104;2023-05-07T15:58:19;19.70;99.90
8105;DHT22;4095;48.942;9.104;2023-05-07T16:00:45;19.70;99.90
8105;DHT22;4095;48.942;9.104;2023-05-07T16:03:11;19.70;99.90
8105;DHT22;4095;48.942;9.104;2023-05-07T16:05:36;19.70;99.90
8105;DHT22;4095;48.942;9.104;2023-05-07T16:08:02;19.70;99.90
8105;DHT22;4095;48.942;9.104;2023-05-07T16:10:29;19.70;99.90
8105;DHT22;4095;48.942;9.104;2023-05-07T16:12:55;19.60;99.90
8105;DHT22;4095;48.942;9.104;2023-05-07T16:15:21;19.60;99.90
8105;DHT22;4095;48.942;9.104;2023-05-07T16:17:47;19.60;99.90
8105;DHT22;4095;48.942;9.104;2023-05-07T16:20:13;19.50;99.90